createdAt,value
2019-02-05T00:01:24.492Z,4.70
2019-02-05T00:05:29.090Z,4.83
2019-02-05T00:09:33.409Z,5.20
2019-02-05T00:13:38.068Z,5.57
2019-02-05T00:17:42.443Z,5.77
2019-02-05T00:21:47.326Z,5.70
2019-02-05T00:25:51.616Z,6.40
2019-02-05T00:29:56.376Z,6.70
2019-02-05T00:34:01.002Z,6.73
2019-02-05T00:38:06.384Z,7.07
2019-02-05T00:42:11.460Z,6.90
2019-02-05T00:46:16.294Z,8.23
2019-02-05T00:50:20.810Z,6.90
2019-02-05T00:54:25.099Z,7.40
2019-02-05T00:58:29.589Z,8.60
2019-02-05T01:02:33.932Z,7.27
2019-02-05T01:06:38.240Z,7.20
2019-02-05T01:10:42.565Z,7.43
2019-02-05T01:14:46.829Z,7.57
2019-02-05T01:18:51.154Z,8.93
2019-02-05T01:22:55.598Z,8.10
2019-02-05T01:26:59.969Z,9.40
2019-02-05T01:31:04.248Z,8.90
2019-02-05T01:35:09.054Z,9.27
2019-02-05T01:39:13.451Z,10.27
2019-02-05T01:43:17.863Z,9.47
2019-02-05T01:47:22.159Z,9.20
2019-02-05T01:51:26.463Z,10.30
2019-02-05T01:55:30.803Z,10.23
2019-02-05T01:59:35.180Z,10.03
2019-02-05T02:03:39.670Z,10.17
2019-02-05T02:07:44.295Z,9.67
2019-02-05T02:11:48.652Z,10.47
2019-02-05T02:15:52.939Z,10.50
2019-02-05T02:19:57.530Z,9.87
2019-02-05T02:24:01.790Z,10.43
2019-02-05T02:28:06.251Z,10.23
2019-02-05T02:32:10.472Z,11.03
2019-02-05T02:36:14.783Z,10.70
2019-02-05T02:40:19.129Z,11.07
2019-02-05T02:44:23.478Z,11.43
2019-02-05T02:48:27.783Z,10.70
2019-02-05T02:52:32.001Z,10.87
2019-02-05T02:56:36.249Z,11.70
2019-02-05T03:00:40.626Z,11.23
2019-02-05T03:04:45.187Z,11.77
2019-02-05T03:08:49.448Z,12.53
2019-02-05T03:12:54.118Z,11.97
2019-02-05T03:16:58.410Z,11.50
2019-02-05T03:21:02.674Z,13.17
2019-02-05T03:25:07.979Z,12.53
2019-02-05T03:29:12.462Z,12.20
2019-02-05T03:33:16.749Z,12.87
2019-02-05T03:37:21.026Z,13.47
2019-02-05T03:41:25.311Z,13.20
2019-02-05T03:45:31.868Z,14.10
2019-02-05T03:49:36.426Z,15.07
2019-02-05T03:53:43.346Z,13.83
2019-02-05T03:58:30.773Z,15.13
2019-02-05T04:02:51.689Z,14.90
2019-02-05T04:07:34.526Z,16.47
2019-02-05T04:12:10.298Z,17.07
2019-02-05T04:16:41.874Z,16.43
2019-02-05T04:21:16.285Z,18.77
2019-02-05T04:25:57.557Z,18.70
2019-02-05T04:30:33.280Z,20.37
2019-02-05T04:35:01.178Z,19.57
2019-02-05T04:39:36.525Z,20.63
2019-02-05T04:43:55.435Z,18.63
2019-02-05T04:48:55.793Z,21.03
2019-02-05T04:53:26.241Z,21.63
2019-02-05T04:57:56.687Z,22.27
2019-02-05T05:02:05.682Z,22.53
2019-02-05T05:06:50.002Z,22.77
2019-02-05T05:10:54.311Z,22.80
2019-02-05T05:14:59.128Z,23.20
2019-02-05T05:19:03.950Z,23.20
2019-02-05T05:23:08.364Z,24.37
2019-02-05T05:27:14.515Z,23.50
2019-02-05T05:31:19.289Z,23.90
2019-02-05T05:35:23.823Z,24.90
2019-02-05T05:39:28.452Z,23.70
2019-02-05T05:43:32.746Z,24.23
2019-02-05T05:47:37.093Z,26.83
2019-02-05T05:51:41.513Z,26.23
2019-02-05T05:55:45.773Z,26.30
2019-02-05T05:59:50.052Z,25.40
2019-02-05T06:03:54.807Z,26.83
2019-02-05T06:07:59.256Z,26.50
2019-02-05T06:12:03.611Z,27.70
2019-02-05T06:16:09.315Z,28.80
2019-02-05T06:20:16.165Z,29.23
2019-02-05T06:24:20.478Z,27.17
2019-02-05T06:28:34.456Z,28.53
2019-02-05T06:32:30.890Z,29.17
2019-02-05T06:36:35.356Z,28.10
2019-02-05T06:40:39.975Z,30.23
2019-02-05T06:44:44.359Z,28.57
2019-02-05T06:48:48.787Z,30.30
2019-02-05T06:52:53.245Z,30.43
2019-02-05T06:56:57.871Z,30.37
2019-02-05T07:01:02.343Z,29.47
2019-02-05T07:05:08.241Z,29.30
2019-02-05T07:09:12.613Z,29.20
2019-02-05T07:13:16.901Z,29.83
2019-02-05T07:17:21.326Z,29.73
2019-02-05T07:21:44.931Z,31.93
2019-02-05T07:25:49.365Z,30.43
2019-02-05T07:29:53.780Z,31.37
2019-02-05T07:33:58.194Z,30.97
2019-02-05T07:38:02.519Z,32.40
2019-02-05T07:42:07.185Z,30.60
2019-02-05T07:46:11.851Z,30.47
2019-02-05T07:50:18.459Z,29.53
2019-02-05T07:54:22.912Z,29.50
2019-02-05T07:58:27.328Z,28.57
2019-02-05T08:02:31.707Z,28.83
2019-02-05T08:06:36.201Z,27.13
2019-02-05T08:10:40.569Z,28.10
2019-02-05T08:14:45.011Z,27.23
2019-02-05T08:18:49.456Z,26.83
2019-02-05T08:22:53.886Z,26.17
2019-02-05T08:26:58.237Z,26.20
2019-02-05T08:31:02.777Z,26.47
2019-02-05T08:35:08.355Z,26.57
2019-02-05T08:39:12.873Z,27.13
2019-02-05T08:43:17.314Z,28.03
2019-02-05T08:47:21.813Z,24.73
2019-02-05T08:51:26.277Z,26.07
2019-02-05T08:55:31.027Z,24.47
2019-02-05T09:03:59.072Z,23.73
2019-02-05T09:08:03.433Z,26.70
2019-02-05T09:12:07.922Z,24.70
2019-02-05T09:16:12.403Z,23.83
2019-02-05T09:20:17.371Z,24.27
2019-02-05T09:24:21.800Z,23.83
2019-02-05T09:28:26.241Z,23.20
2019-02-05T09:32:35.020Z,23.90
2019-02-05T09:36:36.733Z,22.93
2019-02-05T09:40:41.325Z,24.03
2019-02-05T09:44:45.785Z,23.60
2019-02-05T09:48:50.146Z,23.93
2019-02-05T09:52:54.680Z,33.67
2019-02-05T09:56:59.331Z,27.63
2019-02-05T10:01:05.161Z,25.10
2019-02-05T10:05:11.275Z,22.20
2019-02-05T10:09:15.646Z,22.97
2019-02-05T10:13:20.099Z,23.00
2019-02-05T10:17:24.735Z,22.27
2019-02-05T10:21:29.235Z,21.93
2019-02-05T10:25:33.799Z,25.17
2019-02-05T10:29:38.333Z,22.57
2019-02-05T10:33:42.767Z,22.60
2019-02-05T10:37:48.344Z,21.23
2019-02-05T10:41:52.878Z,21.53
2019-02-05T10:45:57.274Z,21.10
2019-02-05T10:50:02.206Z,20.73
2019-02-05T10:54:06.755Z,21.90
2019-02-05T10:58:11.258Z,19.67
2019-02-05T11:02:15.667Z,17.73
2019-02-05T11:06:20.309Z,19.23
2019-02-05T11:10:24.739Z,18.27
2019-02-05T11:14:29.309Z,17.97
2019-02-05T11:18:34.041Z,17.10
2019-02-05T11:22:38.433Z,16.90
2019-02-05T11:26:43.285Z,16.53
2019-02-05T11:30:47.591Z,17.57
2019-02-05T11:34:52.155Z,17.33
2019-02-05T11:38:56.598Z,18.53
2019-02-05T11:43:01.028Z,19.03
2019-02-05T11:47:05.548Z,18.57
2019-02-05T11:51:09.980Z,19.63
2019-02-05T11:55:16.535Z,16.93
2019-02-05T11:59:20.984Z,19.27
2019-02-05T12:03:25.649Z,18.17
2019-02-05T12:07:29.978Z,18.37
2019-02-05T12:11:34.341Z,20.23
2019-02-05T12:15:38.808Z,20.63
2019-02-05T12:19:43.193Z,19.60
2019-02-05T12:23:47.622Z,19.33
2019-02-05T12:27:52.016Z,20.60
2019-02-05T12:31:56.622Z,18.27
2019-02-05T12:36:00.985Z,19.20
2019-02-05T12:40:07.635Z,19.47
2019-02-05T12:44:12.407Z,19.80
2019-02-05T12:48:16.729Z,18.77
2019-02-05T12:52:21.414Z,18.93
2019-02-05T12:56:25.964Z,19.43
2019-02-05T13:00:38.697Z,20.37
2019-02-05T13:04:43.111Z,19.17
2019-02-05T13:08:47.444Z,19.67
2019-02-05T13:12:51.882Z,21.37
2019-02-05T13:16:56.508Z,20.20
2019-02-05T13:21:01.041Z,19.67
2019-02-05T13:25:09.716Z,19.70
2019-02-05T13:29:14.587Z,18.20
2019-02-05T13:33:19.356Z,17.63
2019-02-05T13:37:23.915Z,18.97
2019-02-05T13:41:29.202Z,19.30
2019-02-05T13:45:34.939Z,19.60
2019-02-05T13:49:39.322Z,19.97
2019-02-05T13:53:43.816Z,20.53
2019-02-05T13:57:48.538Z,18.93
2019-02-05T14:01:52.991Z,20.30
2019-02-05T14:05:57.590Z,20.27
2019-02-05T14:10:22.361Z,18.37
2019-02-05T14:14:26.717Z,20.27
2019-02-05T14:18:31.473Z,20.23
2019-02-05T14:22:35.975Z,20.17
2019-02-05T14:26:40.339Z,20.33
2019-02-05T14:30:50.141Z,18.07
2019-02-05T14:34:54.376Z,18.47
2019-02-05T14:39:02.556Z,18.47
2019-02-05T14:43:08.111Z,17.93
2019-02-05T14:47:12.561Z,18.33
2019-02-05T14:51:17.083Z,18.90
2019-02-05T14:55:21.826Z,18.13
2019-02-05T14:59:26.290Z,17.77
2019-02-05T15:03:30.589Z,17.93
2019-02-05T15:07:35.127Z,19.00
2019-02-05T15:11:39.899Z,18.10
2019-02-05T15:15:44.356Z,18.53
2019-02-05T15:19:49.123Z,17.90
2019-02-05T15:23:54.021Z,20.70
2019-02-05T15:27:58.627Z,18.50
2019-02-05T15:32:03.509Z,17.93
2019-02-05T15:36:36.015Z,18.23
2019-02-05T15:40:46.450Z,18.10
2019-02-05T15:44:50.887Z,16.80
2019-02-05T15:48:55.397Z,17.80
2019-02-05T15:52:59.829Z,18.00
2019-02-05T15:57:04.295Z,18.57
2019-02-05T16:01:08.605Z,17.13
2019-02-05T16:05:13.351Z,17.30
2019-02-05T16:09:17.837Z,17.40
2019-02-05T16:13:23.546Z,16.97
2019-02-05T16:17:27.970Z,18.10
2019-02-05T16:21:32.426Z,17.63
2019-02-05T16:25:36.770Z,17.00
2019-02-05T16:29:41.013Z,17.33
2019-02-05T16:33:45.385Z,17.43
2019-02-05T16:37:50.011Z,17.23
2019-02-05T16:41:55.603Z,17.10
2019-02-05T16:46:00.101Z,17.93
2019-02-05T16:50:06.129Z,16.40
2019-02-05T16:54:10.532Z,17.27
2019-02-05T16:58:15.127Z,15.77
2019-02-05T17:02:28.572Z,16.00
2019-02-05T17:06:25.565Z,17.33
2019-02-05T17:10:29.902Z,17.73
2019-02-05T17:14:34.139Z,17.57
2019-02-05T17:18:38.441Z,17.13
2019-02-05T17:22:42.993Z,16.87
2019-02-05T17:26:47.306Z,16.60
2019-02-05T17:30:53.818Z,17.20
2019-02-05T17:34:58.160Z,17.37
2019-02-05T17:39:02.555Z,18.10
2019-02-05T17:43:07.624Z,17.13
2019-02-05T17:47:18.714Z,17.83
2019-02-05T17:51:23.237Z,17.67
2019-02-05T17:55:28.049Z,17.70
2019-02-05T17:59:32.467Z,17.57
2019-02-05T18:03:37.023Z,17.57
2019-02-05T18:07:41.433Z,18.07
2019-02-05T18:11:45.887Z,17.83
2019-02-05T18:15:50.423Z,18.90
2019-02-05T18:19:56.049Z,16.93
2019-02-05T18:24:00.413Z,17.97
2019-02-05T18:28:05.282Z,17.90
2019-02-05T18:32:09.661Z,17.27
2019-02-05T18:36:13.898Z,17.27
2019-02-05T18:40:19.471Z,16.93
2019-02-05T18:44:23.822Z,16.67
2019-02-05T18:48:28.139Z,18.13
2019-02-05T18:52:32.538Z,17.70
2019-02-05T18:56:37.243Z,15.93
2019-02-05T19:00:42.702Z,16.60
2019-02-05T19:04:48.156Z,16.13
2019-02-05T19:08:52.676Z,16.53
2019-02-05T19:12:57.207Z,18.30
2019-02-05T19:17:01.558Z,16.60
2019-02-05T19:21:06.163Z,15.97
2019-02-05T19:25:49.111Z,16.87
2019-02-05T19:29:53.671Z,15.70
2019-02-05T19:33:58.495Z,16.47
2019-02-05T19:38:03.556Z,16.73
2019-02-05T19:42:09.174Z,16.80
2019-02-05T19:46:31.109Z,16.53
2019-02-05T19:50:37.803Z,17.23
2019-02-05T19:54:42.219Z,16.93
2019-02-05T19:58:46.642Z,15.90
2019-02-05T20:02:51.046Z,15.87
2019-02-05T20:06:55.448Z,16.17
2019-02-05T20:10:59.812Z,16.63
2019-02-05T20:15:07.671Z,16.83
2019-02-05T20:19:12.103Z,18.17
2019-02-05T20:23:16.818Z,19.63
2019-02-05T20:27:21.161Z,18.93
2019-02-05T20:31:25.708Z,18.93
2019-02-05T20:35:30.080Z,18.97
2019-02-05T20:39:34.605Z,17.37
2019-02-05T20:43:39.076Z,17.87
2019-02-05T20:47:43.444Z,17.07
2019-02-05T20:51:47.747Z,17.37
2019-02-05T20:55:52.252Z,18.10
2019-02-05T20:59:56.565Z,17.37
2019-02-05T21:04:01.626Z,17.97
2019-02-05T21:08:06.571Z,18.80
2019-02-05T21:12:10.871Z,19.10
2019-02-05T21:16:15.274Z,19.40
2019-02-05T21:20:28.690Z,20.67
2019-02-05T21:24:27.058Z,19.30
2019-02-05T21:28:32.094Z,22.00
2019-02-05T21:32:36.790Z,20.83
2019-02-05T21:36:41.082Z,21.43
2019-02-05T21:41:04.089Z,20.50
2019-02-05T21:45:11.007Z,22.07
2019-02-05T21:49:15.641Z,20.83
2019-02-05T21:53:20.849Z,21.27
2019-02-05T21:57:25.283Z,22.57
2019-02-05T22:01:30.099Z,29.37
2019-02-05T22:05:34.413Z,24.10
2019-02-05T22:09:39.471Z,23.23
2019-02-05T22:13:44.051Z,24.97
2019-02-05T22:17:49.093Z,27.10
2019-02-05T22:21:53.718Z,26.97
2019-02-05T22:25:58.100Z,26.47
2019-02-05T22:30:03.621Z,28.83
2019-02-05T22:34:08.740Z,27.23
2019-02-05T22:38:13.430Z,28.40
2019-02-05T22:42:17.867Z,30.97
2019-02-05T22:46:22.536Z,29.90
2019-02-05T22:50:28.759Z,30.10
2019-02-05T22:54:33.200Z,30.87
2019-02-05T22:58:37.527Z,32.27
2019-02-05T23:02:41.998Z,31.70
2019-02-05T23:07:13.191Z,34.63
2019-02-05T23:11:45.237Z,34.17
2019-02-05T23:15:50.953Z,34.57
2019-02-05T23:19:55.298Z,33.60
2019-02-05T23:23:59.695Z,34.10
2019-02-05T23:28:04.117Z,29.93
2019-02-05T23:32:08.557Z,31.07
2019-02-05T23:36:12.887Z,31.33
2019-02-05T23:40:17.282Z,31.93
2019-02-05T23:44:21.905Z,31.63
2019-02-05T23:48:26.327Z,31.43
2019-02-05T23:52:30.657Z,31.97
2019-02-05T23:56:35.635Z,31.10
